Airfield :
LOGIN :

Register | Disclaimer

   EN    FR    IT 

 










Legend :    VFR   Marginal VFR   IFR   Intensive IFR   Very Intensive IFR
Visi :
Ceiling :
>= 8 km
>= 3000ft
5 to 8 km
1000 to 3000 ft
1500m to 5 km
500 to 1000 ft
800 to 1500m
200 to 500 ft
< 800m
< 200 ft
Symbols :   Thunderstorms  Fog  Heavy snow  Heavy precipitations  Wind > 20 kt
SIGMETs :     Misc.  Thunderstorms  Icing  Turbulence  Mountain Waves  Volcanic Ashes






- Airport Elevation : 512 ft
- IATA code : URO


LFOP - Rouen Vallée de Seine

CURRENT METAR :
  • 191130Z AUTO 28008KT 230V330 9999 BKN016/// BKN021/// BKN120/// ///TCU 20/16 Q1014 TEMPO 3000 RA OVC007 SCT030CB

EXPIRED METARs :
  • 191100Z AUTO 27007KT 240V310 9999 FEW019/// SCT024/// OVC110/// ///TCU 20/15 Q1014 TEMPO 3000 RA OVC003 SCT030CB
  • 191030Z AUTO 31005KT 260V350 9999 SCT016/// BKN110/// BKN190/// ///TCU 21/16 Q1014 TEMPO 3000 RA OVC003 SCT030CB
  • 191000Z AUTO 32006KT 280V350 9999 FEW014 SCT230 19/15 Q1014 TEMPO 3000 RA OVC003 SCT030CB
  • 190930Z AUTO 35006KT 9999 FEW009 18/15 Q1014 TEMPO 3000 RA OVC003 SCT030CB
  • 190900Z AUTO 34007KT 9999 BKN008 BKN013 18/16 Q1014 TEMPO 3000 RA OVC003 SCT030CB

TAF AMD TAF LFOP
Valid from the 19 at 08:00 until the 20 at 06:00 UTC


190800Z 1908/2006 30007KT 9999 BKN030
TEMPO 1908/2006 3000 RA OVC003 SCT030CB
ATIS : +33 2 35 80 80 34
Met : +33 2 32 86 52 80



MET'MAP, your aeronautical weather chart ! - Copyright ORBIFLY December 2007 - Disclaimer

ORBIFLY MET'MAP TEAM :

Programming & Development : Alexandra Zaïnal
Concept & original design : Baudouin d'Aumeries
Assistance for programming : Marc-Olivier Méhu
Technical & hardware support : Manuel Goepfert

Contact : metmap@orbifly.com




SOURCES & CREDITS :

   NOAA